createdAt,value
2023-01-31T00:01:24.249Z,4.64
2023-01-31T00:03:55.662Z,4.59
2023-01-31T00:06:27.236Z,4.57
2023-01-31T00:08:54.687Z,4.52
2023-01-31T00:11:23.614Z,4.53
2023-01-31T00:13:52.480Z,4.61
2023-01-31T00:16:20.010Z,4.56
2023-01-31T00:18:47.289Z,4.53
2023-01-31T00:21:19.344Z,4.56
2023-01-31T00:23:47.194Z,4.56
2023-01-31T00:26:22.883Z,4.57
2023-01-31T00:28:51.798Z,4.61
2023-01-31T00:31:19.876Z,4.65
2023-01-31T00:33:48.189Z,4.71
2023-01-31T00:36:26.119Z,4.70
2023-01-31T00:38:54.979Z,4.76
2023-01-31T00:41:23.131Z,4.80
2023-01-31T00:43:50.622Z,4.84
2023-01-31T00:46:18.320Z,4.85
2023-01-31T00:48:44.812Z,4.89
2023-01-31T00:51:11.378Z,4.80
2023-01-31T00:53:38.532Z,4.91
2023-01-31T00:56:17.767Z,4.96
2023-01-31T00:58:44.608Z,4.94
2023-01-31T01:01:15.991Z,4.95
2023-01-31T01:03:43.912Z,4.98
2023-01-31T01:06:11.838Z,4.98
2023-01-31T01:08:40.644Z,5.03
2023-01-31T01:11:13.609Z,5.09
2023-01-31T01:13:41.293Z,5.10
2023-01-31T01:16:10.550Z,5.11
2023-01-31T01:18:37.437Z,5.10
2023-01-31T01:21:17.988Z,5.12
2023-01-31T01:23:47.162Z,5.06
2023-01-31T01:26:25.204Z,5.06
2023-01-31T01:28:52.555Z,5.06
2023-01-31T01:31:20.046Z,5.03
2023-01-31T01:33:48.694Z,4.94
2023-01-31T01:36:21.738Z,4.98
2023-01-31T01:38:48.211Z,4.92
2023-01-31T01:41:15.271Z,4.87
2023-01-31T01:43:47.044Z,4.99
2023-01-31T01:46:25.197Z,4.92
2023-01-31T01:48:58.081Z,4.87
2023-01-31T01:51:25.304Z,4.91
2023-01-31T01:53:56.710Z,4.88
2023-01-31T01:56:32.465Z,4.83
2023-01-31T01:59:08.613Z,4.85
2023-01-31T02:01:38.052Z,4.81
2023-01-31T02:04:07.807Z,4.77
2023-01-31T02:06:34.758Z,4.83
2023-01-31T02:09:03.690Z,4.77
2023-01-31T02:11:31.421Z,4.75
2023-01-31T02:14:07.389Z,4.78
2023-01-31T02:16:35.193Z,4.80
2023-01-31T02:19:02.439Z,4.74
2023-01-31T02:21:28.817Z,4.86
2023-01-31T02:24:06.637Z,4.83
2023-01-31T02:26:33.099Z,4.87
2023-01-31T02:29:19.870Z,4.89
2023-01-31T02:32:11.836Z,4.89
2023-01-31T02:35:00.181Z,4.91
2023-01-31T02:37:36.844Z,4.89
2023-01-31T02:40:17.440Z,4.86
2023-01-31T02:43:24.146Z,4.86
2023-01-31T02:46:08.094Z,4.86
2023-01-31T02:48:54.215Z,4.98
2023-01-31T02:51:31.434Z,4.90
2023-01-31T02:54:15.747Z,4.90
2023-01-31T02:56:46.300Z,4.89
2023-01-31T02:59:22.012Z,4.90
2023-01-31T03:02:02.298Z,4.91
2023-01-31T03:04:33.453Z,4.90
2023-01-31T03:07:12.356Z,4.97
2023-01-31T03:09:47.537Z,4.99
2023-01-31T03:12:33.265Z,4.96
2023-01-31T03:15:02.670Z,4.98
2023-01-31T03:17:51.102Z,5.02
2023-01-31T03:20:20.833Z,5.00
2023-01-31T03:22:54.716Z,5.03
2023-01-31T03:25:25.234Z,5.01
2023-01-31T03:27:57.219Z,4.97
2023-01-31T03:30:34.720Z,5.07
2023-01-31T03:33:13.758Z,4.98
2023-01-31T03:35:42.955Z,5.07
2023-01-31T03:38:19.198Z,4.99
2023-01-31T03:40:58.172Z,5.06
2023-01-31T03:43:24.587Z,5.01
2023-01-31T03:46:05.277Z,5.06
2023-01-31T03:48:46.633Z,5.00
2023-01-31T03:51:19.975Z,5.00
2023-01-31T03:53:49.898Z,4.97
2023-01-31T03:56:21.611Z,4.96
2023-01-31T03:58:53.733Z,4.86
2023-01-31T04:01:23.978Z,4.80
2023-01-31T04:03:58.401Z,4.86
2023-01-31T04:06:26.107Z,4.80
2023-01-31T04:08:52.607Z,4.74
2023-01-31T04:11:21.673Z,4.76
2023-01-31T04:13:48.158Z,4.63
2023-01-31T04:16:14.955Z,4.64
2023-01-31T04:18:41.426Z,4.69
2023-01-31T04:21:07.946Z,4.66
2023-01-31T04:23:34.398Z,4.66
2023-01-31T04:26:01.073Z,4.69
2023-01-31T04:28:27.654Z,4.69
2023-01-31T04:30:55.786Z,4.70
2023-01-31T04:33:23.155Z,4.66
2023-01-31T04:35:52.731Z,4.77
2023-01-31T04:38:19.405Z,4.81
2023-01-31T04:40:45.880Z,4.76
2023-01-31T04:43:12.355Z,4.81
2023-01-31T04:45:38.919Z,4.78
2023-01-31T04:48:05.895Z,4.78
2023-01-31T04:50:32.983Z,4.89
2023-01-31T04:52:59.600Z,4.78
2023-01-31T04:55:27.507Z,4.89
2023-01-31T04:57:54.172Z,4.86
2023-01-31T05:00:20.912Z,4.91
2023-01-31T05:02:47.546Z,4.88
2023-01-31T05:05:14.050Z,4.82
2023-01-31T05:07:40.623Z,4.93
2023-01-31T05:10:07.792Z,4.86
2023-01-31T05:12:34.338Z,4.96
2023-01-31T05:15:01.648Z,4.95
2023-01-31T05:17:29.922Z,4.92
2023-01-31T05:19:57.347Z,4.94
2023-01-31T05:22:24.102Z,4.92
2023-01-31T05:24:50.656Z,4.98
2023-01-31T05:27:18.158Z,4.96
2023-01-31T05:29:45.722Z,4.95
2023-01-31T05:32:13.262Z,4.92
2023-01-31T05:34:40.010Z,4.99
2023-01-31T05:37:07.182Z,4.99
2023-01-31T05:39:33.872Z,5.06
2023-01-31T05:42:00.339Z,4.97
2023-01-31T05:44:26.937Z,4.99
2023-01-31T05:46:53.407Z,4.93
2023-01-31T05:49:20.177Z,4.98
2023-01-31T05:51:46.678Z,4.98
2023-01-31T05:54:13.272Z,5.04
2023-01-31T05:56:39.895Z,5.02
2023-01-31T05:59:06.471Z,5.02
2023-01-31T06:01:33.439Z,4.98
2023-01-31T06:04:00.554Z,5.03
2023-01-31T06:06:27.183Z,5.08
2023-01-31T06:08:53.650Z,5.13
2023-01-31T06:11:20.146Z,5.10
2023-01-31T06:13:46.666Z,5.20
2023-01-31T06:16:13.383Z,5.19
2023-01-31T06:18:39.886Z,5.12
2023-01-31T06:21:06.819Z,5.23
2023-01-31T06:23:34.469Z,5.23
2023-01-31T06:26:01.099Z,5.24
2023-01-31T06:28:27.743Z,5.32
2023-01-31T06:30:54.458Z,5.27
2023-01-31T06:33:22.728Z,5.20
2023-01-31T06:35:50.913Z,5.30
2023-01-31T06:38:17.523Z,5.23
2023-01-31T06:40:44.076Z,5.21
2023-01-31T06:43:10.524Z,5.19
2023-01-31T06:45:37.808Z,5.22
2023-01-31T06:48:04.507Z,5.10
2023-01-31T06:50:31.559Z,5.18
2023-01-31T06:52:59.374Z,5.20
2023-01-31T06:55:26.000Z,5.22
2023-01-31T06:57:52.515Z,5.13
2023-01-31T07:00:19.291Z,5.18
2023-01-31T07:02:46.759Z,5.22
2023-01-31T07:05:13.707Z,5.15
2023-01-31T07:07:40.804Z,5.17
2023-01-31T07:10:08.247Z,5.21
2023-01-31T07:12:34.942Z,5.23
2023-01-31T07:15:01.409Z,5.31
2023-01-31T07:17:28.371Z,5.33
2023-01-31T07:19:54.914Z,5.38
2023-01-31T07:22:21.452Z,5.44
2023-01-31T07:24:50.943Z,5.47
2023-01-31T07:27:18.165Z,5.50
2023-01-31T07:29:44.757Z,5.59
2023-01-31T07:32:11.297Z,5.61
2023-01-31T07:34:37.917Z,5.61
2023-01-31T07:37:04.447Z,5.76
2023-01-31T07:39:31.036Z,5.73
2023-01-31T07:41:57.530Z,5.82
2023-01-31T07:44:24.177Z,5.89
2023-01-31T07:46:51.171Z,5.83
2023-01-31T07:49:17.620Z,5.89
2023-01-31T07:51:44.052Z,5.87
2023-01-31T07:54:11.687Z,5.93
2023-01-31T07:56:38.493Z,5.95
2023-01-31T07:59:04.983Z,6.08
2023-01-31T08:01:50.941Z,6.16
2023-01-31T08:04:22.106Z,6.08
2023-01-31T08:06:53.517Z,6.05
2023-01-31T08:09:20.079Z,6.20
2023-01-31T08:11:47.146Z,6.09
2023-01-31T08:14:14.169Z,6.18
2023-01-31T08:16:40.841Z,6.16
2023-01-31T08:19:07.446Z,6.17
2023-01-31T08:21:33.919Z,6.17
2023-01-31T08:24:00.378Z,6.13
2023-01-31T08:26:26.898Z,6.20
2023-01-31T08:28:56.830Z,6.14
2023-01-31T08:31:26.194Z,6.13
2023-01-31T08:33:53.923Z,5.97
2023-01-31T08:36:23.822Z,6.06
2023-01-31T08:38:50.816Z,5.95
2023-01-31T08:41:19.076Z,5.95
2023-01-31T08:43:55.894Z,5.67
2023-01-31T08:46:25.173Z,5.72
2023-01-31T08:48:51.900Z,5.64
2023-01-31T08:51:18.737Z,5.62
2023-01-31T08:53:46.103Z,5.65
2023-01-31T08:56:13.963Z,5.64
2023-01-31T08:58:42.640Z,5.67
2023-01-31T09:01:11.720Z,5.64
2023-01-31T09:03:38.281Z,5.65
2023-01-31T09:06:07.756Z,5.66
2023-01-31T09:08:34.401Z,5.66
2023-01-31T09:11:00.927Z,5.69
2023-01-31T09:13:28.662Z,5.65
2023-01-31T09:15:59.414Z,5.77
2023-01-31T09:18:26.187Z,5.82
2023-01-31T09:20:52.945Z,5.83
2023-01-31T09:23:20.113Z,5.79
2023-01-31T09:25:56.247Z,5.83
2023-01-31T09:28:25.273Z,5.90
2023-01-31T09:30:55.241Z,5.93
2023-01-31T09:33:23.244Z,5.95
2023-01-31T09:36:05.144Z,5.96
2023-01-31T09:38:32.038Z,6.06
2023-01-31T09:41:01.268Z,6.06
2023-01-31T09:43:42.849Z,6.01
2023-01-31T09:46:15.346Z,5.94
2023-01-31T09:48:45.894Z,5.98
2023-01-31T09:51:14.041Z,6.00
2023-01-31T09:53:41.365Z,5.93
2023-01-31T09:56:37.449Z,6.07
2023-01-31T09:59:09.906Z,5.95
2023-01-31T10:01:54.428Z,5.91
2023-01-31T10:04:23.788Z,5.93
2023-01-31T10:06:58.851Z,5.98
2023-01-31T10:09:42.046Z,5.99
2023-01-31T10:12:19.026Z,5.86
2023-01-31T10:14:50.392Z,6.04
2023-01-31T10:17:28.106Z,5.97
2023-01-31T10:20:00.659Z,6.04
2023-01-31T10:22:42.942Z,6.07
2023-01-31T10:25:31.856Z,5.98
2023-01-31T10:28:04.841Z,6.16
2023-01-31T10:30:41.742Z,6.19
2023-01-31T10:33:43.584Z,6.14
2023-01-31T10:36:18.674Z,6.15
2023-01-31T10:39:05.384Z,6.07
2023-01-31T10:41:41.104Z,6.13
2023-01-31T10:44:18.024Z,6.14
2023-01-31T10:46:44.483Z,6.13
2023-01-31T10:49:11.120Z,6.26
2023-01-31T10:51:40.679Z,6.22
2023-01-31T10:54:16.183Z,6.29
2023-01-31T10:56:47.981Z,6.36
2023-01-31T10:59:39.382Z,6.36
2023-01-31T11:02:18.567Z,6.35
2023-01-31T11:04:45.118Z,6.42
2023-01-31T11:07:12.552Z,6.40
2023-01-31T11:09:46.912Z,6.50
2023-01-31T11:12:13.410Z,6.49
2023-01-31T11:14:39.929Z,6.58
2023-01-31T11:17:22.517Z,6.65
2023-01-31T11:19:54.075Z,6.72
2023-01-31T11:22:29.032Z,6.77
2023-01-31T11:24:57.085Z,6.77
2023-01-31T11:27:36.933Z,6.85
2023-01-31T11:30:05.698Z,6.85
2023-01-31T11:32:36.838Z,6.94
2023-01-31T11:35:22.178Z,6.93
2023-01-31T11:37:54.270Z,6.92
2023-01-31T11:40:27.803Z,6.99
2023-01-31T11:42:57.441Z,6.89
2023-01-31T11:45:33.019Z,6.97
2023-01-31T11:48:08.337Z,7.03
2023-01-31T11:50:39.308Z,7.08
2023-01-31T11:53:22.987Z,7.11
2023-01-31T11:55:52.016Z,6.99
2023-01-31T11:58:23.668Z,7.10
2023-01-31T12:00:57.117Z,7.15
2023-01-31T12:03:24.864Z,7.15
2023-01-31T12:06:00.022Z,7.22
2023-01-31T12:08:41.333Z,7.27
2023-01-31T12:11:19.961Z,7.17
2023-01-31T12:13:49.720Z,7.26
2023-01-31T12:16:22.564Z,7.21
2023-01-31T12:19:07.546Z,7.20
2023-01-31T12:21:52.198Z,7.21
2023-01-31T12:24:18.660Z,7.17
2023-01-31T12:26:54.111Z,7.34
2023-01-31T12:29:35.639Z,7.34
2023-01-31T12:32:18.330Z,7.39
2023-01-31T12:35:12.823Z,7.39
2023-01-31T12:37:54.752Z,7.41
2023-01-31T12:40:30.816Z,7.47
2023-01-31T12:43:01.226Z,7.39
2023-01-31T12:45:52.752Z,7.46
2023-01-31T12:48:46.327Z,7.46
2023-01-31T12:51:24.954Z,7.54
2023-01-31T12:54:00.529Z,7.56
2023-01-31T12:56:46.142Z,7.51
2023-01-31T12:59:16.827Z,7.49
2023-01-31T13:01:57.384Z,7.60
2023-01-31T13:04:45.596Z,7.46
2023-01-31T13:07:29.603Z,7.52
2023-01-31T13:10:00.196Z,7.52
2023-01-31T13:12:31.314Z,7.52
2023-01-31T13:15:17.305Z,7.43
2023-01-31T13:17:45.944Z,7.37
2023-01-31T13:20:12.380Z,7.20
2023-01-31T13:22:49.376Z,7.15
2023-01-31T13:25:34.536Z,6.98
2023-01-31T13:28:12.968Z,7.04
2023-01-31T13:30:59.493Z,7.03
2023-01-31T13:33:32.394Z,6.94
2023-01-31T13:36:13.781Z,6.91
2023-01-31T13:38:43.050Z,6.89
2023-01-31T13:41:33.065Z,6.95
2023-01-31T13:44:01.405Z,6.82
2023-01-31T13:46:52.765Z,6.91
2023-01-31T13:49:32.109Z,6.90
2023-01-31T13:52:25.303Z,6.95
2023-01-31T13:54:57.722Z,6.92
2023-01-31T13:57:26.419Z,6.89
2023-01-31T14:00:06.444Z,6.93
2023-01-31T14:02:33.019Z,6.82
2023-01-31T14:05:09.306Z,6.98
2023-01-31T14:07:35.795Z,6.98
2023-01-31T14:10:02.323Z,6.93
2023-01-31T14:12:35.072Z,7.05
2023-01-31T14:15:02.767Z,7.04
2023-01-31T14:17:29.323Z,7.05
2023-01-31T14:19:55.790Z,7.02
2023-01-31T14:22:27.670Z,7.00
2023-01-31T14:24:55.889Z,7.00
2023-01-31T14:27:43.892Z,7.05
2023-01-31T14:30:35.330Z,7.03
2023-01-31T14:33:10.842Z,7.12
2023-01-31T14:35:40.366Z,7.08
2023-01-31T14:38:31.269Z,7.04
2023-01-31T14:41:09.985Z,7.11
2023-01-31T14:43:53.441Z,7.08
2023-01-31T14:46:32.639Z,7.11
2023-01-31T14:49:07.974Z,7.10
2023-01-31T14:51:43.353Z,7.20
2023-01-31T14:54:20.104Z,7.15
2023-01-31T14:57:30.397Z,7.19
2023-01-31T15:00:09.139Z,7.19
2023-01-31T15:03:01.503Z,7.22
2023-01-31T15:05:30.869Z,7.29
2023-01-31T15:08:06.208Z,7.24
2023-01-31T15:10:51.180Z,7.31
2023-01-31T15:13:42.765Z,7.33
2023-01-31T15:16:15.279Z,7.36
2023-01-31T15:18:44.570Z,7.43
2023-01-31T15:21:11.451Z,7.34
2023-01-31T15:23:41.990Z,7.52
2023-01-31T15:26:09.446Z,7.46
2023-01-31T15:28:38.420Z,7.55
2023-01-31T15:31:13.616Z,7.55
2023-01-31T15:33:45.115Z,7.63
2023-01-31T15:36:26.632Z,7.52
2023-01-31T15:38:58.295Z,7.59
2023-01-31T15:41:36.995Z,7.60
2023-01-31T15:44:30.072Z,7.63
2023-01-31T15:47:03.458Z,7.62
2023-01-31T15:49:41.101Z,7.67
2023-01-31T15:52:22.263Z,7.74
2023-01-31T15:54:57.418Z,7.67
2023-01-31T15:57:36.005Z,7.74
2023-01-31T16:00:03.144Z,7.78
2023-01-31T16:02:33.412Z,7.80
2023-01-31T16:05:00.322Z,7.89
2023-01-31T16:07:31.112Z,7.90
2023-01-31T16:10:01.768Z,8.00
2023-01-31T16:12:31.502Z,7.95
2023-01-31T16:15:03.976Z,7.94
2023-01-31T16:17:30.925Z,8.04
2023-01-31T16:19:58.277Z,8.04
2023-01-31T16:22:24.994Z,8.09
2023-01-31T16:24:57.102Z,8.12
2023-01-31T16:27:25.342Z,8.22
2023-01-31T16:29:54.495Z,8.22
2023-01-31T16:32:36.930Z,8.17
2023-01-31T16:35:41.915Z,8.16
2023-01-31T16:38:27.023Z,8.17
2023-01-31T16:40:59.216Z,8.22
2023-01-31T16:43:29.229Z,8.34
2023-01-31T16:46:06.574Z,8.32
2023-01-31T16:48:38.555Z,8.29
2023-01-31T16:51:25.610Z,8.28
2023-01-31T16:54:30.680Z,8.33
2023-01-31T16:57:03.185Z,8.35
2023-01-31T16:59:37.810Z,8.37
2023-01-31T17:02:13.582Z,8.36
2023-01-31T17:04:41.891Z,8.40
2023-01-31T17:07:16.306Z,8.38
2023-01-31T17:09:43.509Z,8.37
2023-01-31T17:12:26.256Z,8.42
2023-01-31T17:14:57.279Z,8.39
2023-01-31T17:17:26.091Z,8.40
2023-01-31T17:19:52.572Z,8.36
2023-01-31T17:22:19.317Z,8.36
2023-01-31T17:24:46.845Z,8.35
2023-01-31T17:27:15.723Z,8.29
2023-01-31T17:29:43.930Z,8.36
2023-01-31T17:32:12.540Z,8.29
2023-01-31T17:34:39.874Z,8.35
2023-01-31T17:37:06.599Z,8.36
2023-01-31T17:39:34.204Z,8.37
2023-01-31T17:42:01.007Z,8.24
2023-01-31T17:44:27.676Z,8.29
2023-01-31T17:46:54.295Z,8.37
2023-01-31T17:49:20.850Z,8.37
2023-01-31T17:51:47.354Z,8.37
2023-01-31T17:54:13.897Z,8.41
2023-01-31T17:56:40.388Z,8.36
2023-01-31T17:59:12.270Z,8.35
2023-01-31T18:01:41.686Z,8.37
2023-01-31T18:04:08.201Z,8.44
2023-01-31T18:06:34.754Z,8.47
2023-01-31T18:09:03.444Z,8.49
2023-01-31T18:11:29.927Z,8.43
2023-01-31T18:13:59.032Z,8.45
2023-01-31T18:16:25.957Z,8.46
2023-01-31T18:18:53.384Z,8.40
2023-01-31T18:21:21.751Z,8.45
2023-01-31T18:23:52.908Z,8.46
2023-01-31T18:26:20.788Z,8.48
2023-01-31T18:28:47.511Z,8.48
2023-01-31T18:31:15.652Z,8.42
2023-01-31T18:33:45.376Z,8.43
2023-01-31T18:36:14.189Z,8.41
2023-01-31T18:38:43.604Z,8.33
2023-01-31T18:41:14.223Z,8.38
2023-01-31T18:43:41.773Z,8.24
2023-01-31T18:46:10.199Z,8.28
2023-01-31T18:48:39.028Z,8.19
2023-01-31T18:51:08.510Z,8.18
2023-01-31T18:53:36.485Z,8.04
2023-01-31T18:56:05.848Z,8.06
2023-01-31T18:58:38.064Z,8.04
2023-01-31T19:01:06.769Z,8.00
2023-01-31T19:03:33.595Z,7.98
2023-01-31T19:06:07.085Z,7.92
2023-01-31T19:08:33.986Z,7.89
2023-01-31T19:11:13.288Z,7.87
2023-01-31T19:13:41.245Z,7.82
2023-01-31T19:16:13.691Z,7.80
2023-01-31T19:18:40.985Z,7.77
2023-01-31T19:21:27.588Z,7.76
2023-01-31T19:23:56.620Z,7.70
2023-01-31T19:26:23.646Z,7.62
2023-01-31T19:28:50.192Z,7.63
2023-01-31T19:31:20.671Z,7.65
2023-01-31T19:33:56.179Z,7.63
2023-01-31T19:36:25.728Z,7.65
2023-01-31T19:38:52.559Z,7.66
2023-01-31T19:41:22.001Z,7.67
2023-01-31T19:43:50.120Z,7.63
2023-01-31T19:46:17.727Z,7.66
2023-01-31T19:48:44.331Z,7.58
2023-01-31T19:51:19.184Z,7.57
2023-01-31T19:53:46.928Z,7.59
2023-01-31T19:56:14.198Z,7.50
2023-01-31T19:58:41.088Z,7.45
2023-01-31T20:01:10.320Z,7.49
2023-01-31T20:03:37.242Z,7.42
2023-01-31T20:06:07.765Z,7.44
2023-01-31T20:08:35.509Z,7.44
2023-01-31T20:11:02.301Z,7.41
2023-01-31T20:13:28.994Z,7.40
2023-01-31T20:15:59.417Z,7.38
2023-01-31T20:18:26.434Z,7.37
2023-01-31T20:20:53.665Z,7.30
2023-01-31T20:23:21.069Z,7.27
2023-01-31T20:25:50.014Z,7.29
2023-01-31T20:28:17.269Z,7.23
2023-01-31T20:30:43.961Z,7.20
2023-01-31T20:33:11.179Z,7.15
2023-01-31T20:35:39.241Z,7.21
2023-01-31T20:38:06.568Z,7.17
2023-01-31T20:40:33.129Z,7.07
2023-01-31T20:42:59.609Z,7.13
2023-01-31T20:45:28.940Z,7.06
2023-01-31T20:47:56.602Z,7.10
2023-01-31T20:50:23.817Z,7.09
2023-01-31T20:52:51.464Z,7.00
2023-01-31T20:55:18.558Z,6.99
2023-01-31T20:57:49.879Z,7.04
2023-01-31T21:00:21.402Z,6.98
2023-01-31T21:02:49.466Z,7.00
2023-01-31T21:05:19.295Z,6.91
2023-01-31T21:07:45.953Z,6.92
2023-01-31T21:10:13.243Z,6.94
2023-01-31T21:12:39.844Z,6.92
2023-01-31T21:15:06.847Z,6.86
2023-01-31T21:17:39.882Z,6.95
2023-01-31T21:20:07.979Z,6.91
2023-01-31T21:22:34.811Z,6.93
2023-01-31T21:25:01.418Z,6.93
2023-01-31T21:27:27.962Z,6.89
2023-01-31T21:29:54.438Z,7.00
2023-01-31T21:32:21.031Z,6.98
2023-01-31T21:34:47.505Z,6.98
2023-01-31T21:37:13.997Z,6.99
2023-01-31T21:39:40.494Z,6.96
2023-01-31T21:42:16.237Z,6.98
2023-01-31T21:44:43.424Z,6.94
2023-01-31T21:47:09.944Z,6.99
2023-01-31T21:49:36.674Z,6.96
2023-01-31T21:52:04.109Z,6.90
2023-01-31T21:54:30.695Z,6.89
2023-01-31T21:56:57.213Z,6.89
2023-01-31T21:59:24.049Z,6.90
2023-01-31T22:01:51.915Z,6.91
2023-01-31T22:04:23.364Z,6.88
2023-01-31T22:06:50.976Z,6.88
2023-01-31T22:09:18.020Z,6.85
2023-01-31T22:11:45.345Z,6.84
2023-01-31T22:14:14.126Z,6.77
2023-01-31T22:16:41.703Z,6.81
2023-01-31T22:19:10.723Z,6.70
2023-01-31T22:21:37.491Z,6.74
2023-01-31T22:24:06.998Z,6.72
2023-01-31T22:26:42.002Z,6.66
2023-01-31T22:29:11.356Z,6.69
2023-01-31T22:31:38.409Z,6.65
2023-01-31T22:34:07.062Z,6.61
2023-01-31T22:36:34.166Z,6.59
2023-01-31T22:39:01.200Z,6.50
2023-01-31T22:41:28.069Z,6.50
2023-01-31T22:43:54.661Z,6.53
2023-01-31T22:46:24.532Z,6.49
2023-01-31T22:48:51.351Z,6.52
2023-01-31T22:51:25.829Z,6.41
2023-01-31T22:53:54.185Z,6.30
2023-01-31T22:56:26.712Z,6.39
2023-01-31T22:58:58.054Z,6.29
2023-01-31T23:01:26.518Z,6.36
2023-01-31T23:04:00.241Z,6.37
2023-01-31T23:06:27.891Z,6.28
2023-01-31T23:08:55.220Z,6.29
2023-01-31T23:11:23.690Z,6.28
2023-01-31T23:13:50.641Z,6.32
2023-01-31T23:16:20.121Z,6.32
2023-01-31T23:18:47.105Z,6.32
2023-01-31T23:21:16.418Z,6.34
2023-01-31T23:23:43.844Z,6.33
2023-01-31T23:26:11.601Z,6.26
2023-01-31T23:28:38.109Z,6.24
2023-01-31T23:31:04.887Z,6.29
2023-01-31T23:33:31.456Z,6.31
2023-01-31T23:35:57.950Z,6.31
2023-01-31T23:38:24.471Z,6.37
2023-01-31T23:40:52.345Z,6.29
2023-01-31T23:43:19.769Z,6.35
2023-01-31T23:45:46.862Z,6.41
2023-01-31T23:48:13.331Z,6.38
2023-01-31T23:50:39.785Z,6.47
2023-01-31T23:53:06.241Z,6.48
2023-01-31T23:55:33.152Z,6.45
2023-01-31T23:57:59.652Z,6.52
